Southport — V7PQ6 — position and weather

sailwx.info

Track history (hours):
 
Tides and Currents Weather Stations Pressure Air Temp Water Temp Dewpoint Dewpoint Depression Visibility Wind Speed Wind Dir Waves Ship Positions

Southport

Last reported at 2018-Jan-22 02:23 UTC. Time now 2018-Jan-23 02:22 UTC.
Position N 39°27' W 009°57'.

Length 250 m; draft 13.7 m.

Type: Ship. MMSI: 538003268.

Date/timePositionNaut miles runAvg speedWind from/ knotsBaromVisibWave heightAir tempDewpointWater temp
2018-Jan-22 02:23N 39°27' W 009°57'3 8.2
2018-Jan-22 01:59N 39°24' W 009°57'4 8.2
2018-Jan-22 01:30N 39°20' W 009°57'4 8.3
2018-Jan-22 01:00N 39°16' W 009°57'4 8.5
2018-Jan-22 00:30N 39°12' W 009°57'4 8.5
2018-Jan-22 00:00N 39°07' W 009°57'4 8.5
2018-Jan-21 23:30N 39°03' W 009°57'4 8.4
2018-Jan-21 23:00N 38°59' W 009°57'4 8.4
2018-Jan-21 22:30N 38°55' W 009°57'4 8.4
2018-Jan-21 22:00N 38°51' W 009°57'4 8.7
2018-Jan-21 21:30N 38°46' W 009°57'4 8.1
2018-Jan-21 21:00N 38°42' W 009°57'4 8.0
2018-Jan-21 20:30N 38°38' W 009°55'4 7.7
2018-Jan-21 20:00N 38°35' W 009°54'4 8.1
2018-Jan-21 19:30N 38°31' W 009°53'4 8.3
2018-Jan-21 19:00N 38°27' W 009°52'4 8.2
2018-Jan-21 18:30N 38°23' W 009°51'4 8.1
2018-Jan-21 18:00N 38°19' W 009°50'4 8.4
2018-Jan-21 17:30N 38°15' W 009°49'4 8.5
2018-Jan-21 17:00N 38°10' W 009°47'5 8.6
2018-Jan-21 16:28N 38°06' W 009°46'5 8.6
2018-Jan-21 15:54N 38°01' W 009°44'8 8.6
2018-Jan-21 14:58N 37°53' W 009°42'4 8.4
2018-Jan-21 14:30N 37°50' W 009°41'4 8.6
2018-Jan-21 14:00N 37°45' W 009°40'4 8.6
2018-Jan-21 13:30N 37°41' W 009°39'5 8.6
2018-Jan-21 12:53N 37°36' W 009°37'16 8.7
2018-Jan-21 11:01N 37°20' W 009°32'0 8.4
2018-Jan-21 11:00N 37°20' W 009°32'6 8.5
2018-Jan-21 10:15N 37°14' W 009°31'3 8.7
2018-Jan-21 09:55N 37°11' W 009°30'3 8.4
2018-Jan-21 09:30N 37°08' W 009°29'4 8.4
2018-Jan-21 09:00N 37°03' W 009°28'4 8.5
2018-Jan-21 08:29N 36°59' W 009°26'4 8.1
2018-Jan-21 07:59N 36°55' W 009°25'16 8.3
2018-Jan-21 06:02N 36°42' W 009°14'3 8.4
2018-Jan-21 05:38N 36°40' W 009°10'2 9.3
2018-Jan-21 05:22N 36°40' W 009°07'5 9.2
2018-Jan-21 04:46N 36°38' W 009°00'4 9.5
2018-Jan-21 04:20N 36°38' W 008°55'3 9.3
2018-Jan-21 04:00N 36°38' W 008°51'5 9.2
2018-Jan-21 03:30N 36°38' W 008°46'18 9.2
2018-Jan-21 01:32N 36°38' W 008°23'1 9.6
2018-Jan-21 01:25N 36°38' W 008°22'4 9.1
2018-Jan-21 01:00N 36°38' W 008°17'5 9.2
2018-Jan-21 00:28N 36°36' W 008°11'12 9.4
2018-Jan-20 23:12N 36°31' W 007°58'121 9.3
2018-Jan-20 10:07N 35°59' W 005°33'1 6.8
2018-Jan-20 10:00N 35°59' W 005°32'4 6.1
2018-Jan-20 09:22N 36°00' W 005°27'2 6.0
2018-Jan-20 08:59N 36°01' W 005°25'3 6.6
2018-Jan-20 08:30N 36°04' W 005°23'3 1.2
2018-Jan-20 05:39N 36°07' W 005°22'0 0.1
2018-Jan-20 05:30N 36°07' W 005°22'0 0.0
2018-Jan-20 03:24N 36°07' W 005°22'0 0.0
2018-Jan-20 01:30N 36°07' W 005°22'0 0.1
2018-Jan-20 01:00N 36°07' W 005°22'0 0.0
2018-Jan-19 23:27N 36°07' W 005°22'0 0.1
2018-Jan-19 22:57N 36°07' W 005°22'0 0.1
2018-Jan-19 22:18N 36°07' W 005°22'0 0.2
2018-Jan-19 22:00N 36°07' W 005°22'0 0.0
2018-Jan-19 21:24N 36°07' W 005°22'0 0.1
2018-Jan-19 21:00N 36°07' W 005°22'0 0.1
2018-Jan-19 20:30N 36°07' W 005°22'0 0.1
2018-Jan-19 20:00N 36°07' W 005°22'0 0.0
2018-Jan-19 19:27N 36°07' W 005°22'0 0.2
2018-Jan-19 19:00N 36°07' W 005°22'0 0.0
2018-Jan-19 18:30N 36°07' W 005°22'0 0.1
2018-Jan-19 18:00N 36°07' W 005°22'0 0.1
2018-Jan-19 17:30N 36°08' W 005°22'0 0.1
2018-Jan-19 16:59N 36°08' W 005°22'0 0.2
2018-Jan-19 16:30N 36°07' W 005°22'2 3.9
2018-Jan-19 16:00N 36°06' W 005°21'4 8.6
2018-Jan-19 15:30N 36°04' W 005°16'4 7.6
2018-Jan-19 15:00N 36°05' W 005°12'510.0
2018-Jan-19 14:30N 36°08' W 005°07'5 9.5
2018-Jan-19 13:57N 36°11' W 005°02'1 2.6
2018-Jan-19 13:30N 36°12' W 005°01'0 0.7
2018-Jan-19 13:00N 36°11' W 005°00'0 0.7
2018-Jan-19 12:30N 36°11' W 005°00'0 0.7
2018-Jan-19 12:00N 36°11' W 004°60'0 0.7
2018-Jan-19 11:30N 36°11' W 004°60'0 0.5
2018-Jan-19 11:00N 36°10' W 004°59'0 0.5
2018-Jan-19 10:30N 36°10' W 004°59'0 0.4
2018-Jan-19 10:00N 36°10' W 004°59'0 0.6
2018-Jan-19 09:30N 36°10' W 004°59'1 2.3
2018-Jan-19 09:00N 36°11' W 004°58'4 7.3
2018-Jan-19 08:30N 36°13' W 004°54'4 7.9
2018-Jan-19 08:00N 36°16' W 004°55'3 5.7
2018-Jan-19 07:30N 36°19' W 004°53'0 0.9
2018-Jan-19 07:00N 36°19' W 004°52'0 0.3
2018-Jan-19 06:30N 36°19' W 004°52'0 0.4
2018-Jan-19 05:59N 36°19' W 004°52'0 0.4
2018-Jan-19 05:30N 36°18' W 004°52'1 0.8
2018-Jan-19 04:03N 36°17' W 004°52'2 1.4
2018-Jan-19 02:45N 36°15' W 004°53'0 1.7
2018-Jan-19 02:30N 36°15' W 004°53'1 1.9
2018-Jan-19 02:00N 36°14' W 004°53'1 1.9
2018-Jan-19 01:30N 36°13' W 004°54'2 3.5
2018-Jan-19 00:55N 36°13' W 004°57'4 9.2
2018-Jan-19 00:30N 36°12' W 005°01'4 8.1
2018-Jan-18 23:58N 36°10' W 005°06'2 4.9
2018-Jan-18 23:30N 36°09' W 005°08'1 2.5
2018-Jan-18 23:00N 36°09' W 005°07'1 2.3
2018-Jan-18 22:30N 36°10' W 005°06'1 2.2
2018-Jan-18 22:00N 36°11' W 005°05'1 1.8
2018-Jan-18 21:30N 36°11' W 005°04'1 1.6
2018-Jan-18 21:00N 36°12' W 005°03'1 1.4
2018-Jan-18 20:30N 36°12' W 005°03'1 1.4
2018-Jan-18 20:00N 36°13' W 005°03'3 5.6
2018-Jan-18 19:30N 36°11' W 005°05'3 6.8
2018-Jan-18 19:00N 36°09' W 005°08'1 1.3
2018-Jan-18 18:30N 36°09' W 005°07'1 1.6
2018-Jan-18 18:00N 36°10' W 005°07'1 1.3
2018-Jan-18 17:30N 36°10' W 005°07'1 1.1
2018-Jan-18 16:58N 36°11' W 005°06'0 1.0
2018-Jan-18 16:30N 36°11' W 005°06'0 0.6
2018-Jan-18 16:00N 36°12' W 005°06'0 0.3
2018-Jan-18 15:30N 36°12' W 005°06'0 0.6
2018-Jan-18 15:00N 36°12' W 005°05'1 1.6
2018-Jan-18 14:30N 36°11' W 005°05'5 9.6
2018-Jan-18 14:00N 36°07' W 005°01'5 9.1
2018-Jan-18 13:30N 36°06' W 004°56'5 9.2
2018-Jan-18 13:00N 36°06' W 004°50'7 9.3
2018-Jan-18 12:17N 36°07' W 004°42'  
Track history (hours):
 
Tides and Currents Weather Stations Pressure Air Temp Water Temp Dewpoint Dewpoint Depression Visibility Wind Speed Wind Dir Waves Ship Positions

Southport

Last reported at 2018-Jan-22 02:23 UTC. Time now 2018-Jan-23 02:22 UTC.
Position N 39°27' W 009°57'.

Length 250 m; draft 13.7 m.

Type: Ship. MMSI: 538003268.

Date/timePositionNaut miles runAvg speedWind from/ knotsBaromVisibWave heightAir tempDewpointWater temp
2018-Jan-22 02:23N 39°27' W 009°57'3 8.2
2018-Jan-22 01:59N 39°24' W 009°57'4 8.2
2018-Jan-22 01:30N 39°20' W 009°57'4 8.3
2018-Jan-22 01:00N 39°16' W 009°57'4 8.5
2018-Jan-22 00:30N 39°12' W 009°57'4 8.5
2018-Jan-22 00:00N 39°07' W 009°57'4 8.5
2018-Jan-21 23:30N 39°03' W 009°57'4 8.4
2018-Jan-21 23:00N 38°59' W 009°57'4 8.4
2018-Jan-21 22:30N 38°55' W 009°57'4 8.4
2018-Jan-21 22:00N 38°51' W 009°57'4 8.7
2018-Jan-21 21:30N 38°46' W 009°57'4 8.1
2018-Jan-21 21:00N 38°42' W 009°57'4 8.0
2018-Jan-21 20:30N 38°38' W 009°55'4 7.7
2018-Jan-21 20:00N 38°35' W 009°54'4 8.1
2018-Jan-21 19:30N 38°31' W 009°53'4 8.3
2018-Jan-21 19:00N 38°27' W 009°52'4 8.2
2018-Jan-21 18:30N 38°23' W 009°51'4 8.1
2018-Jan-21 18:00N 38°19' W 009°50'4 8.4
2018-Jan-21 17:30N 38°15' W 009°49'4 8.5
2018-Jan-21 17:00N 38°10' W 009°47'5 8.6
2018-Jan-21 16:28N 38°06' W 009°46'5 8.6
2018-Jan-21 15:54N 38°01' W 009°44'8 8.6
2018-Jan-21 14:58N 37°53' W 009°42'4 8.4
2018-Jan-21 14:30N 37°50' W 009°41'4 8.6
2018-Jan-21 14:00N 37°45' W 009°40'4 8.6
2018-Jan-21 13:30N 37°41' W 009°39'5 8.6
2018-Jan-21 12:53N 37°36' W 009°37'16 8.7
2018-Jan-21 11:01N 37°20' W 009°32'0 8.4
2018-Jan-21 11:00N 37°20' W 009°32'6 8.5
2018-Jan-21 10:15N 37°14' W 009°31'3 8.7
2018-Jan-21 09:55N 37°11' W 009°30'3 8.4
2018-Jan-21 09:30N 37°08' W 009°29'4 8.4
2018-Jan-21 09:00N 37°03' W 009°28'4 8.5
2018-Jan-21 08:29N 36°59' W 009°26'4 8.1
2018-Jan-21 07:59N 36°55' W 009°25'16 8.3
2018-Jan-21 06:02N 36°42' W 009°14'3 8.4
2018-Jan-21 05:38N 36°40' W 009°10'2 9.3
2018-Jan-21 05:22N 36°40' W 009°07'5 9.2
2018-Jan-21 04:46N 36°38' W 009°00'4 9.5
2018-Jan-21 04:20N 36°38' W 008°55'3 9.3
2018-Jan-21 04:00N 36°38' W 008°51'5 9.2
2018-Jan-21 03:30N 36°38' W 008°46'18 9.2
2018-Jan-21 01:32N 36°38' W 008°23'1 9.6
2018-Jan-21 01:25N 36°38' W 008°22'4 9.1
2018-Jan-21 01:00N 36°38' W 008°17'5 9.2
2018-Jan-21 00:28N 36°36' W 008°11'12 9.4
2018-Jan-20 23:12N 36°31' W 007°58'121 9.3
2018-Jan-20 10:07N 35°59' W 005°33'1 6.8
2018-Jan-20 10:00N 35°59' W 005°32'4 6.1
2018-Jan-20 09:22N 36°00' W 005°27'2 6.0
2018-Jan-20 08:59N 36°01' W 005°25'3 6.6
2018-Jan-20 08:30N 36°04' W 005°23'3 1.2
2018-Jan-20 05:39N 36°07' W 005°22'0 0.1
2018-Jan-20 05:30N 36°07' W 005°22'0 0.0
2018-Jan-20 03:24N 36°07' W 005°22'0 0.0
2018-Jan-20 01:30N 36°07' W 005°22'0 0.1
2018-Jan-20 01:00N 36°07' W 005°22'0 0.0
2018-Jan-19 23:27N 36°07' W 005°22'0 0.1
2018-Jan-19 22:57N 36°07' W 005°22'0 0.1
2018-Jan-19 22:18N 36°07' W 005°22'0 0.2
2018-Jan-19 22:00N 36°07' W 005°22'0 0.0
2018-Jan-19 21:24N 36°07' W 005°22'0 0.1
2018-Jan-19 21:00N 36°07' W 005°22'0 0.1
2018-Jan-19 20:30N 36°07' W 005°22'0 0.1
2018-Jan-19 20:00N 36°07' W 005°22'0 0.0
2018-Jan-19 19:27N 36°07' W 005°22'0 0.2
2018-Jan-19 19:00N 36°07' W 005°22'0 0.0
2018-Jan-19 18:30N 36°07' W 005°22'0 0.1
2018-Jan-19 18:00N 36°07' W 005°22'0 0.1
2018-Jan-19 17:30N 36°08' W 005°22'0 0.1
2018-Jan-19 16:59N 36°08' W 005°22'0 0.2
2018-Jan-19 16:30N 36°07' W 005°22'2 3.9
2018-Jan-19 16:00N 36°06' W 005°21'4 8.6
2018-Jan-19 15:30N 36°04' W 005°16'4 7.6
2018-Jan-19 15:00N 36°05' W 005°12'510.0
2018-Jan-19 14:30N 36°08' W 005°07'5 9.5
2018-Jan-19 13:57N 36°11' W 005°02'1 2.6
2018-Jan-19 13:30N 36°12' W 005°01'0 0.7
2018-Jan-19 13:00N 36°11' W 005°00'0 0.7
2018-Jan-19 12:30N 36°11' W 005°00'0 0.7
2018-Jan-19 12:00N 36°11' W 004°60'0 0.7
2018-Jan-19 11:30N 36°11' W 004°60'0 0.5
2018-Jan-19 11:00N 36°10' W 004°59'0 0.5
2018-Jan-19 10:30N 36°10' W 004°59'0 0.4
2018-Jan-19 10:00N 36°10' W 004°59'0 0.6
2018-Jan-19 09:30N 36°10' W 004°59'1 2.3
2018-Jan-19 09:00N 36°11' W 004°58'4 7.3
2018-Jan-19 08:30N 36°13' W 004°54'4 7.9
2018-Jan-19 08:00N 36°16' W 004°55'3 5.7
2018-Jan-19 07:30N 36°19' W 004°53'0 0.9
2018-Jan-19 07:00N 36°19' W 004°52'0 0.3
2018-Jan-19 06:30N 36°19' W 004°52'0 0.4
2018-Jan-19 05:59N 36°19' W 004°52'0 0.4
2018-Jan-19 05:30N 36°18' W 004°52'1 0.8
2018-Jan-19 04:03N 36°17' W 004°52'2 1.4
2018-Jan-19 02:45N 36°15' W 004°53'0 1.7
2018-Jan-19 02:30N 36°15' W 004°53'1 1.9
2018-Jan-19 02:00N 36°14' W 004°53'1 1.9
2018-Jan-19 01:30N 36°13' W 004°54'2 3.5
2018-Jan-19 00:55N 36°13' W 004°57'4 9.2
2018-Jan-19 00:30N 36°12' W 005°01'4 8.1
2018-Jan-18 23:58N 36°10' W 005°06'2 4.9
2018-Jan-18 23:30N 36°09' W 005°08'1 2.5
2018-Jan-18 23:00N 36°09' W 005°07'1 2.3
2018-Jan-18 22:30N 36°10' W 005°06'1 2.2
2018-Jan-18 22:00N 36°11' W 005°05'1 1.8
2018-Jan-18 21:30N 36°11' W 005°04'1 1.6
2018-Jan-18 21:00N 36°12' W 005°03'1 1.4
2018-Jan-18 20:30N 36°12' W 005°03'1 1.4
2018-Jan-18 20:00N 36°13' W 005°03'3 5.6
2018-Jan-18 19:30N 36°11' W 005°05'3 6.8
2018-Jan-18 19:00N 36°09' W 005°08'1 1.3
2018-Jan-18 18:30N 36°09' W 005°07'1 1.6
2018-Jan-18 18:00N 36°10' W 005°07'1 1.3
2018-Jan-18 17:30N 36°10' W 005°07'1 1.1
2018-Jan-18 16:58N 36°11' W 005°06'0 1.0
2018-Jan-18 16:30N 36°11' W 005°06'0 0.6
2018-Jan-18 16:00N 36°12' W 005°06'0 0.3
2018-Jan-18 15:30N 36°12' W 005°06'0 0.6
2018-Jan-18 15:00N 36°12' W 005°05'1 1.6
2018-Jan-18 14:30N 36°11' W 005°05'5 9.6
2018-Jan-18 14:00N 36°07' W 005°01'5 9.1
2018-Jan-18 13:30N 36°06' W 004°56'5 9.2
2018-Jan-18 13:00N 36°06' W 004°50'7 9.3
2018-Jan-18 12:17N 36°07' W 004°42'  

Dump ship's entire track history